Airfield :
LOGIN :

Register | Disclaimer

   EN    FR    IT 

 










Legend :    VFR   Marginal VFR   IFR   Intensive IFR   Very Intensive IFR
Visi :
Ceiling :
>= 8 km
>= 3000ft
5 to 8 km
1000 to 3000 ft
1500m to 5 km
500 to 1000 ft
800 to 1500m
200 to 500 ft
< 800m
< 200 ft
Symbols :   Thunderstorms  Fog  Heavy snow  Heavy precipitations  Wind > 20 kt
SIGMETs :     Misc.  Thunderstorms  Icing  Turbulence  Mountain Waves  Volcanic Ashes







- Airport Elevation : 267 ft


EGDR - Culdrose Navy

CURRENT METAR :
  • 221050Z 27012KT 8000 -SHRA FEW005 FEW017CB SCT022 BKN070 05/03 Q1006 WHT TEMPO 4000 SHRA SCT012 BKN015TCU GRN

EXPIRED METARs :
  • 221023Z 26011G23KT 5000 -SHRA FEW005 SCT012 FEW016CB BKN080 05/03 Q1006 GRN TEMPO 1800 +SHGS SCT005 BKN014CB YLO2
  • 221016Z 26013G23KT 4000 SHGS SCT012 FEW016CB SCT020 BKN080 05/03 Q1006 GRN TEMPO 1800 +SHGS SCT005 BKN014CB YLO2
  • 220950Z 27013KT 9999 -SHRA FEW012 SCT020 BKN080 06/03 Q1006 WHT TEMPO 4000 SHRA SCT012 SCT020TCU GRN
  • 220923Z 27011KT 9999 VCSH FEW012 SCT080 BKN200 06/03 Q1006 BLU TEMPO 4000 SHRA SCT012 SCT020TCU GRN
  • 220850Z 27013G23KT 9999 VCSH FEW012 BKN090 06/03 Q1006 BLU TEMPO 4000 SHRA SCT012 SCT020TCU GRN
  • 220825Z 28010KT 9999 VCSH FEW012 BKN090 06/01 Q1006 BLU TEMPO 2500 +SHRAGS SCT006 BKN015CB YLO1
  • 220750Z 29010KT 9999 VCSH FEW012 SCT110 05/02 Q1007 RESHRA BLU TEMPO 2500 +SHRAGS SCT006 BKN015CB YLO1

TAF AMD TAF EGDR
Valid from the 22 at 09:00 until the 22 at 18:00 UTC


221025Z 2209/2218 29015G25KT 9999 FEW010 SCT025
TEMPO 2210/2218 7000 -SHRA SCT022TCU
TEMPO 2210/2218 4000 SHRA SCT010 BKN020TCU
TEMPO 2210/2212 1800 +SHRAGS SCT005 BKN014CB
No reported NOTAMs for that airfield.
1 SIGMET reported for the London FIR (EGTT) :
 
Severe turbulence
EGTT SIGMET 01 VALID 221030/221430 EGRR
EGTT LONDON FIR SEV TURB FCST WI N5220 W00530 - N5429 W00530 - N5214 W00410 - N5045 W00342 - N4947 W00604 - N5143 W00639 - N5220 W00530 FL160/400 MOV E 15KT NC=



MET'MAP, your aeronautical weather chart ! - Copyright ORBIFLY December 2007 - Disclaimer

ORBIFLY MET'MAP TEAM :

Programming & Development : Alexandra Zaïnal
Concept & Development : Baudouin d'Aumeries
Co-Development & Prog : Marc-Olivier Méhu
Technical & hardware support : Manuel Goepfert

Contact : metmap@orbifly.com




SOURCES & CREDITS :

   NOAA